sensor_id;sensor_type;location;lat;lon;timestamp;P1;durP1;ratioP1;P2;durP2;ratioP2
5539;SDS011;2792;52.452;9.752;2023-08-06T00:00:22;9.37;;;5.90;;
5539;SDS011;2792;52.452;9.752;2023-08-06T00:02:49;7.60;;;5.73;;
5539;SDS011;2792;52.452;9.752;2023-08-06T00:05:16;9.93;;;6.10;;
5539;SDS011;2792;52.452;9.752;2023-08-06T00:07:45;7.50;;;6.20;;
5539;SDS011;2792;52.452;9.752;2023-08-06T00:10:13;7.37;;;6.13;;
5539;SDS011;2792;52.452;9.752;2023-08-06T00:12:40;11.63;;;7.67;;
5539;SDS011;2792;52.452;9.752;2023-08-06T00:15:07;9.77;;;6.77;;
5539;SDS011;2792;52.452;9.752;2023-08-06T00:17:34;10.20;;;7.23;;
5539;SDS011;2792;52.452;9.752;2023-08-06T00:20:01;8.97;;;6.67;;
5539;SDS011;2792;52.452;9.752;2023-08-06T00:22:30;10.87;;;7.23;;
5539;SDS011;2792;52.452;9.752;2023-08-06T00:24:56;11.80;;;7.60;;
5539;SDS011;2792;52.452;9.752;2023-08-06T00:27:25;9.33;;;6.77;;
5539;SDS011;2792;52.452;9.752;2023-08-06T00:29:51;9.23;;;6.57;;
5539;SDS011;2792;52.452;9.752;2023-08-06T00:32:18;10.80;;;6.90;;
5539;SDS011;2792;52.452;9.752;2023-08-06T00:34:44;14.23;;;6.63;;
5539;SDS011;2792;52.452;9.752;2023-08-06T00:37:11;8.93;;;6.63;;
5539;SDS011;2792;52.452;9.752;2023-08-06T00:39:37;8.07;;;6.50;;
5539;SDS011;2792;52.452;9.752;2023-08-06T00:42:04;7.70;;;6.90;;
5539;SDS011;2792;52.452;9.752;2023-08-06T00:44:32;10.67;;;7.80;;
5539;SDS011;2792;52.452;9.752;2023-08-06T00:46:58;8.77;;;6.37;;
5539;SDS011;2792;52.452;9.752;2023-08-06T00:49:25;11.53;;;7.60;;
5539;SDS011;2792;52.452;9.752;2023-08-06T00:51:51;8.97;;;6.57;;
5539;SDS011;2792;52.452;9.752;2023-08-06T00:54:18;10.13;;;7.17;;
5539;SDS011;2792;52.452;9.752;2023-08-06T00:56:44;9.50;;;7.03;;
5539;SDS011;2792;52.452;9.752;2023-08-06T00:59:11;11.17;;;7.37;;
5539;SDS011;2792;52.452;9.752;2023-08-06T01:01:40;9.50;;;6.13;;
5539;SDS011;2792;52.452;9.752;2023-08-06T01:04:06;9.63;;;7.07;;
5539;SDS011;2792;52.452;9.752;2023-08-06T01:06:35;8.20;;;6.07;;
5539;SDS011;2792;52.452;9.752;2023-08-06T01:09:08;8.70;;;6.10;;
5539;SDS011;2792;52.452;9.752;2023-08-06T01:11:42;10.80;;;7.70;;
5539;SDS011;2792;52.452;9.752;2023-08-06T01:14:15;10.43;;;7.10;;
5539;SDS011;2792;52.452;9.752;2023-08-06T01:16:48;9.57;;;6.80;;
5539;SDS011;2792;52.452;9.752;2023-08-06T01:19:16;11.57;;;7.77;;
5539;SDS011;2792;52.452;9.752;2023-08-06T01:21:44;14.63;;;8.17;;
5539;SDS011;2792;52.452;9.752;2023-08-06T01:24:10;10.50;;;7.50;;
5539;SDS011;2792;52.452;9.752;2023-08-06T01:26:39;9.93;;;6.60;;
5539;SDS011;2792;52.452;9.752;2023-08-06T01:29:10;10.17;;;7.60;;
5539;SDS011;2792;52.452;9.752;2023-08-06T01:31:39;12.33;;;7.60;;
5539;SDS011;2792;52.452;9.752;2023-08-06T01:34:09;14.50;;;8.37;;
5539;SDS011;2792;52.452;9.752;2023-08-06T01:36:37;10.70;;;7.77;;
5539;SDS011;2792;52.452;9.752;2023-08-06T01:39:05;9.77;;;7.93;;
5539;SDS011;2792;52.452;9.752;2023-08-06T01:41:32;10.00;;;7.63;;
5539;SDS011;2792;52.452;9.752;2023-08-06T01:43:58;10.57;;;8.03;;
5539;SDS011;2792;52.452;9.752;2023-08-06T01:46:25;14.80;;;8.20;;
5539;SDS011;2792;52.452;9.752;2023-08-06T01:48:51;13.50;;;8.30;;
5539;SDS011;2792;52.452;9.752;2023-08-06T01:51:18;10.10;;;7.07;;
5539;SDS011;2792;52.452;9.752;2023-08-06T01:53:44;8.50;;;6.60;;
5539;SDS011;2792;52.452;9.752;2023-08-06T01:56:12;11.20;;;7.93;;
5539;SDS011;2792;52.452;9.752;2023-08-06T01:58:39;12.50;;;8.23;;
5539;SDS011;2792;52.452;9.752;2023-08-06T02:01:05;11.90;;;8.70;;
5539;SDS011;2792;52.452;9.752;2023-08-06T02:03:32;11.97;;;9.00;;
5539;SDS011;2792;52.452;9.752;2023-08-06T02:05:58;12.73;;;8.53;;
5539;SDS011;2792;52.452;9.752;2023-08-06T02:08:27;17.03;;;9.97;;
5539;SDS011;2792;52.452;9.752;2023-08-06T02:10:53;13.33;;;9.03;;
5539;SDS011;2792;52.452;9.752;2023-08-06T02:13:21;19.53;;;10.27;;
5539;SDS011;2792;52.452;9.752;2023-08-06T02:15:47;12.83;;;8.73;;
5539;SDS011;2792;52.452;9.752;2023-08-06T02:18:14;13.00;;;9.57;;
5539;SDS011;2792;52.452;9.752;2023-08-06T02:20:41;14.27;;;9.87;;
5539;SDS011;2792;52.452;9.752;2023-08-06T02:23:07;16.80;;;10.20;;
5539;SDS011;2792;52.452;9.752;2023-08-06T02:25:33;13.90;;;9.50;;
5539;SDS011;2792;52.452;9.752;2023-08-06T02:28:00;13.80;;;9.20;;
5539;SDS011;2792;52.452;9.752;2023-08-06T02:30:28;12.63;;;8.20;;
5539;SDS011;2792;52.452;9.752;2023-08-06T02:32:55;17.37;;;9.90;;
5539;SDS011;2792;52.452;9.752;2023-08-06T02:35:22;16.00;;;9.60;;
5539;SDS011;2792;52.452;9.752;2023-08-06T02:37:48;19.43;;;10.87;;
5539;SDS011;2792;52.452;9.752;2023-08-06T02:40:15;15.93;;;9.90;;
5539;SDS011;2792;52.452;9.752;2023-08-06T02:42:41;18.63;;;10.93;;
5539;SDS011;2792;52.452;9.752;2023-08-06T02:45:08;26.20;;;13.97;;
5539;SDS011;2792;52.452;9.752;2023-08-06T02:47:36;28.53;;;14.77;;
5539;SDS011;2792;52.452;9.752;2023-08-06T02:50:03;37.00;;;15.80;;
5539;SDS011;2792;52.452;9.752;2023-08-06T02:52:30;29.90;;;15.43;;
5539;SDS011;2792;52.452;9.752;2023-08-06T02:54:56;33.87;;;14.57;;
5539;SDS011;2792;52.452;9.752;2023-08-06T02:57:25;27.63;;;13.47;;
5539;SDS011;2792;52.452;9.752;2023-08-06T02:59:51;34.50;;;16.10;;
5539;SDS011;2792;52.452;9.752;2023-08-06T03:02:18;37.83;;;17.33;;
5539;SDS011;2792;52.452;9.752;2023-08-06T03:04:46;31.73;;;15.47;;
5539;SDS011;2792;52.452;9.752;2023-08-06T03:07:12;42.30;;;17.20;;
5539;SDS011;2792;52.452;9.752;2023-08-06T03:09:39;44.50;;;17.40;;
5539;SDS011;2792;52.452;9.752;2023-08-06T03:12:06;47.37;;;19.67;;
5539;SDS011;2792;52.452;9.752;2023-08-06T03:14:33;42.87;;;18.63;;
5539;SDS011;2792;52.452;9.752;2023-08-06T03:16:59;58.53;;;21.37;;
5539;SDS011;2792;52.452;9.752;2023-08-06T03:19:26;42.33;;;18.30;;
5539;SDS011;2792;52.452;9.752;2023-08-06T03:21:54;44.37;;;18.30;;
5539;SDS011;2792;52.452;9.752;2023-08-06T03:24:20;54.67;;;21.87;;
5539;SDS011;2792;52.452;9.752;2023-08-06T03:26:47;45.37;;;16.73;;
5539;SDS011;2792;52.452;9.752;2023-08-06T03:29:13;47.00;;;19.57;;
5539;SDS011;2792;52.452;9.752;2023-08-06T03:31:40;46.77;;;20.00;;
5539;SDS011;2792;52.452;9.752;2023-08-06T03:34:06;50.07;;;19.30;;
5539;SDS011;2792;52.452;9.752;2023-08-06T03:36:32;50.60;;;19.20;;
5539;SDS011;2792;52.452;9.752;2023-08-06T03:39:00;39.23;;;17.73;;
5539;SDS011;2792;52.452;9.752;2023-08-06T03:41:27;42.07;;;17.37;;
5539;SDS011;2792;52.452;9.752;2023-08-06T03:43:53;52.87;;;19.23;;
5539;SDS011;2792;52.452;9.752;2023-08-06T03:46:20;53.43;;;18.63;;
5539;SDS011;2792;52.452;9.752;2023-08-06T03:48:46;49.83;;;19.33;;
5539;SDS011;2792;52.452;9.752;2023-08-06T03:51:13;80.17;;;21.00;;
5539;SDS011;2792;52.452;9.752;2023-08-06T03:53:39;129.67;;;25.20;;
5539;SDS011;2792;52.452;9.752;2023-08-06T03:56:07;56.27;;;19.60;;
5539;SDS011;2792;52.452;9.752;2023-08-06T03:58:34;56.40;;;18.70;;
5539;SDS011;2792;52.452;9.752;2023-08-06T04:01:01;57.37;;;18.70;;
5539;SDS011;2792;52.452;9.752;2023-08-06T04:03:28;62.20;;;18.20;;
5539;SDS011;2792;52.452;9.752;2023-08-06T04:05:55;46.93;;;16.73;;
5539;SDS011;2792;52.452;9.752;2023-08-06T04:08:21;71.87;;;17.17;;
5539;SDS011;2792;52.452;9.752;2023-08-06T04:10:49;91.63;;;16.80;;
5539;SDS011;2792;52.452;9.752;2023-08-06T04:13:17;93.30;;;18.10;;
5539;SDS011;2792;52.452;9.752;2023-08-06T04:15:43;44.60;;;14.20;;
5539;SDS011;2792;52.452;9.752;2023-08-06T04:18:10;48.00;;;15.80;;
5539;SDS011;2792;52.452;9.752;2023-08-06T04:20:42;51.93;;;15.60;;
5539;SDS011;2792;52.452;9.752;2023-08-06T04:23:08;55.30;;;16.40;;
5539;SDS011;2792;52.452;9.752;2023-08-06T04:25:35;68.27;;;13.83;;
5539;SDS011;2792;52.452;9.752;2023-08-06T04:28:01;63.40;;;14.70;;
5539;SDS011;2792;52.452;9.752;2023-08-06T04:30:29;33.70;;;13.70;;
5539;SDS011;2792;52.452;9.752;2023-08-06T04:32:56;51.83;;;13.60;;
5539;SDS011;2792;52.452;9.752;2023-08-06T04:35:22;53.63;;;15.33;;
5539;SDS011;2792;52.452;9.752;2023-08-06T04:37:49;47.63;;;15.90;;
5539;SDS011;2792;52.452;9.752;2023-08-06T04:40:16;70.90;;;17.87;;
5539;SDS011;2792;52.452;9.752;2023-08-06T04:42:42;94.80;;;19.40;;
5539;SDS011;2792;52.452;9.752;2023-08-06T04:45:09;38.37;;;15.00;;
5539;SDS011;2792;52.452;9.752;2023-08-06T04:47:37;67.97;;;18.77;;
5539;SDS011;2792;52.452;9.752;2023-08-06T04:50:04;63.27;;;15.60;;
5539;SDS011;2792;52.452;9.752;2023-08-06T04:52:31;36.03;;;14.10;;
5539;SDS011;2792;52.452;9.752;2023-08-06T04:54:58;35.67;;;15.67;;
5539;SDS011;2792;52.452;9.752;2023-08-06T04:57:24;39.93;;;15.60;;
5539;SDS011;2792;52.452;9.752;2023-08-06T04:59:51;48.20;;;16.43;;
5539;SDS011;2792;52.452;9.752;2023-08-06T05:02:17;59.90;;;16.07;;
5539;SDS011;2792;52.452;9.752;2023-08-06T05:04:45;38.03;;;15.63;;
5539;SDS011;2792;52.452;9.752;2023-08-06T05:07:12;38.10;;;13.77;;
5539;SDS011;2792;52.452;9.752;2023-08-06T05:09:38;36.40;;;13.97;;
5539;SDS011;2792;52.452;9.752;2023-08-06T05:12:05;39.13;;;14.13;;
5539;SDS011;2792;52.452;9.752;2023-08-06T05:14:32;46.43;;;15.00;;
5539;SDS011;2792;52.452;9.752;2023-08-06T05:16:59;30.70;;;13.10;;
5539;SDS011;2792;52.452;9.752;2023-08-06T05:19:27;26.10;;;12.17;;
5539;SDS011;2792;52.452;9.752;2023-08-06T05:21:55;31.03;;;12.50;;
5539;SDS011;2792;52.452;9.752;2023-08-06T05:24:21;32.80;;;14.73;;
5539;SDS011;2792;52.452;9.752;2023-08-06T05:26:48;34.73;;;14.30;;
5539;SDS011;2792;52.452;9.752;2023-08-06T05:29:15;31.80;;;13.93;;
5539;SDS011;2792;52.452;9.752;2023-08-06T05:31:42;28.87;;;12.47;;
5539;SDS011;2792;52.452;9.752;2023-08-06T05:34:09;33.17;;;14.37;;
5539;SDS011;2792;52.452;9.752;2023-08-06T05:36:35;38.70;;;14.80;;
5539;SDS011;2792;52.452;9.752;2023-08-06T05:39:03;26.40;;;13.97;;
5539;SDS011;2792;52.452;9.752;2023-08-06T05:41:30;28.90;;;13.33;;
5539;SDS011;2792;52.452;9.752;2023-08-06T05:43:56;24.17;;;11.50;;
5539;SDS011;2792;52.452;9.752;2023-08-06T05:46:23;25.00;;;12.73;;
5539;SDS011;2792;52.452;9.752;2023-08-06T05:48:49;24.40;;;13.60;;
5539;SDS011;2792;52.452;9.752;2023-08-06T05:51:16;23.43;;;12.50;;
5539;SDS011;2792;52.452;9.752;2023-08-06T05:53:43;22.87;;;13.10;;
5539;SDS011;2792;52.452;9.752;2023-08-06T05:56:12;20.27;;;12.10;;
5539;SDS011;2792;52.452;9.752;2023-08-06T05:58:38;17.80;;;10.90;;
5539;SDS011;2792;52.452;9.752;2023-08-06T06:01:06;21.63;;;11.50;;
5539;SDS011;2792;52.452;9.752;2023-08-06T06:03:32;16.10;;;10.60;;
5539;SDS011;2792;52.452;9.752;2023-08-06T06:05:59;16.43;;;10.00;;
5539;SDS011;2792;52.452;9.752;2023-08-06T06:08:27;15.70;;;9.87;;
5539;SDS011;2792;52.452;9.752;2023-08-06T06:10:54;14.47;;;10.50;;
5539;SDS011;2792;52.452;9.752;2023-08-06T06:13:22;13.97;;;9.00;;
5539;SDS011;2792;52.452;9.752;2023-08-06T06:15:48;16.90;;;7.90;;
5539;SDS011;2792;52.452;9.752;2023-08-06T06:18:14;10.40;;;7.70;;
5539;SDS011;2792;52.452;9.752;2023-08-06T06:20:41;10.60;;;7.40;;
5539;SDS011;2792;52.452;9.752;2023-08-06T06:23:07;10.93;;;7.70;;
5539;SDS011;2792;52.452;9.752;2023-08-06T06:25:34;8.10;;;7.30;;
5539;SDS011;2792;52.452;9.752;2023-08-06T06:28:00;7.83;;;6.83;;
5539;SDS011;2792;52.452;9.752;2023-08-06T06:30:28;10.13;;;7.53;;
5539;SDS011;2792;52.452;9.752;2023-08-06T06:32:55;9.30;;;7.63;;
5539;SDS011;2792;52.452;9.752;2023-08-06T06:35:21;9.27;;;7.30;;
5539;SDS011;2792;52.452;9.752;2023-08-06T06:37:48;10.23;;;7.60;;
5539;SDS011;2792;52.452;9.752;2023-08-06T06:40:15;9.67;;;7.50;;
5539;SDS011;2792;52.452;9.752;2023-08-06T06:42:41;8.90;;;6.90;;
5539;SDS011;2792;52.452;9.752;2023-08-06T06:45:08;9.00;;;7.10;;
5539;SDS011;2792;52.452;9.752;2023-08-06T06:47:37;7.93;;;6.60;;
5539;SDS011;2792;52.452;9.752;2023-08-06T06:50:03;6.20;;;5.60;;
5539;SDS011;2792;52.452;9.752;2023-08-06T06:52:31;8.50;;;6.30;;
5539;SDS011;2792;52.452;9.752;2023-08-06T06:54:57;8.70;;;6.90;;
5539;SDS011;2792;52.452;9.752;2023-08-06T06:57:24;9.23;;;5.30;;
5539;SDS011;2792;52.452;9.752;2023-08-06T06:59:50;8.00;;;5.67;;
5539;SDS011;2792;52.452;9.752;2023-08-06T07:02:17;7.37;;;5.17;;
5539;SDS011;2792;52.452;9.752;2023-08-06T07:04:45;5.20;;;4.70;;
5539;SDS011;2792;52.452;9.752;2023-08-06T07:07:11;5.40;;;4.87;;
5539;SDS011;2792;52.452;9.752;2023-08-06T07:09:38;5.73;;;4.80;;
5539;SDS011;2792;52.452;9.752;2023-08-06T07:12:05;5.53;;;4.20;;
5539;SDS011;2792;52.452;9.752;2023-08-06T07:14:32;4.53;;;4.03;;
5539;SDS011;2792;52.452;9.752;2023-08-06T07:16:58;6.60;;;4.70;;
5539;SDS011;2792;52.452;9.752;2023-08-06T07:19:25;5.87;;;4.60;;
5539;SDS011;2792;52.452;9.752;2023-08-06T07:21:53;6.17;;;4.57;;
5539;SDS011;2792;52.452;9.752;2023-08-06T07:24:20;6.70;;;4.47;;
5539;SDS011;2792;52.452;9.752;2023-08-06T07:26:47;6.87;;;4.13;;
5539;SDS011;2792;52.452;9.752;2023-08-06T07:29:13;4.20;;;3.80;;
5539;SDS011;2792;52.452;9.752;2023-08-06T07:31:44;6.90;;;4.23;;
5539;SDS011;2792;52.452;9.752;2023-08-06T07:34:11;4.37;;;3.90;;
5539;SDS011;2792;52.452;9.752;2023-08-06T07:36:37;7.43;;;3.90;;
5539;SDS011;2792;52.452;9.752;2023-08-06T07:39:05;4.60;;;4.20;;
5539;SDS011;2792;52.452;9.752;2023-08-06T07:41:32;4.30;;;3.90;;
5539;SDS011;2792;52.452;9.752;2023-08-06T07:43:58;4.33;;;3.93;;
5539;SDS011;2792;52.452;9.752;2023-08-06T07:46:25;5.17;;;4.00;;
5539;SDS011;2792;52.452;9.752;2023-08-06T07:48:51;5.93;;;4.93;;
5539;SDS011;2792;52.452;9.752;2023-08-06T07:51:18;4.50;;;3.43;;
5539;SDS011;2792;52.452;9.752;2023-08-06T07:53:44;4.50;;;3.57;;
5539;SDS011;2792;52.452;9.752;2023-08-06T07:56:12;7.20;;;3.73;;
5539;SDS011;2792;52.452;9.752;2023-08-06T07:58:39;4.87;;;3.50;;
5539;SDS011;2792;52.452;9.752;2023-08-06T08:01:05;5.40;;;4.67;;
5539;SDS011;2792;52.452;9.752;2023-08-06T08:03:32;3.97;;;3.60;;
5539;SDS011;2792;52.452;9.752;2023-08-06T08:05:59;4.53;;;3.47;;
5539;SDS011;2792;52.452;9.752;2023-08-06T08:08:25;5.10;;;3.53;;
5539;SDS011;2792;52.452;9.752;2023-08-06T08:10:52;5.17;;;3.93;;
5539;SDS011;2792;52.452;9.752;2023-08-06T08:13:21;3.67;;;3.27;;
5539;SDS011;2792;52.452;9.752;2023-08-06T08:15:48;4.30;;;3.90;;
5539;SDS011;2792;52.452;9.752;2023-08-06T08:18:14;4.00;;;3.30;;
5539;SDS011;2792;52.452;9.752;2023-08-06T08:20:41;3.27;;;2.90;;
5539;SDS011;2792;52.452;9.752;2023-08-06T08:23:07;3.27;;;2.90;;
5539;SDS011;2792;52.452;9.752;2023-08-06T08:25:34;3.10;;;2.80;;
5539;SDS011;2792;52.452;9.752;2023-08-06T08:28:00;4.60;;;3.00;;
5539;SDS011;2792;52.452;9.752;2023-08-06T08:30:28;4.27;;;3.20;;
5539;SDS011;2792;52.452;9.752;2023-08-06T08:32:54;3.40;;;2.70;;
5539;SDS011;2792;52.452;9.752;2023-08-06T08:35:21;3.10;;;2.80;;
5539;SDS011;2792;52.452;9.752;2023-08-06T08:37:48;6.00;;;2.63;;
5539;SDS011;2792;52.452;9.752;2023-08-06T08:40:15;3.90;;;2.90;;
5539;SDS011;2792;52.452;9.752;2023-08-06T08:42:42;3.07;;;2.60;;
5539;SDS011;2792;52.452;9.752;2023-08-06T08:45:11;4.40;;;2.80;;
5539;SDS011;2792;52.452;9.752;2023-08-06T08:47:40;2.13;;;1.93;;
5539;SDS011;2792;52.452;9.752;2023-08-06T08:50:07;3.10;;;2.80;;
5539;SDS011;2792;52.452;9.752;2023-08-06T08:52:34;4.10;;;2.43;;
5539;SDS011;2792;52.452;9.752;2023-08-06T08:55:01;2.63;;;2.30;;
5539;SDS011;2792;52.452;9.752;2023-08-06T08:57:28;2.33;;;2.13;;
5539;SDS011;2792;52.452;9.752;2023-08-06T08:59:54;2.53;;;2.33;;
5539;SDS011;2792;52.452;9.752;2023-08-06T09:02:21;5.13;;;2.57;;
5539;SDS011;2792;52.452;9.752;2023-08-06T09:04:51;2.90;;;2.70;;
5539;SDS011;2792;52.452;9.752;2023-08-06T09:07:18;7.63;;;2.83;;
5539;SDS011;2792;52.452;9.752;2023-08-06T09:09:46;2.60;;;2.40;;
5539;SDS011;2792;52.452;9.752;2023-08-06T09:12:14;2.43;;;2.03;;
5539;SDS011;2792;52.452;9.752;2023-08-06T09:14:41;3.53;;;2.30;;
5539;SDS011;2792;52.452;9.752;2023-08-06T09:17:08;3.00;;;2.40;;
5539;SDS011;2792;52.452;9.752;2023-08-06T09:19:35;2.50;;;2.30;;
5539;SDS011;2792;52.452;9.752;2023-08-06T09:22:04;2.53;;;2.27;;
5539;SDS011;2792;52.452;9.752;2023-08-06T09:24:37;2.50;;;2.30;;
5539;SDS011;2792;52.452;9.752;2023-08-06T09:27:04;3.17;;;2.50;;
5539;SDS011;2792;52.452;9.752;2023-08-06T09:29:31;2.70;;;2.47;;
5539;SDS011;2792;52.452;9.752;2023-08-06T09:31:58;2.80;;;2.27;;
5539;SDS011;2792;52.452;9.752;2023-08-06T09:34:24;2.37;;;2.17;;
5539;SDS011;2792;52.452;9.752;2023-08-06T09:36:51;3.43;;;2.67;;
5539;SDS011;2792;52.452;9.752;2023-08-06T09:39:20;2.50;;;2.30;;
5539;SDS011;2792;52.452;9.752;2023-08-06T09:41:47;3.20;;;2.53;;
5539;SDS011;2792;52.452;9.752;2023-08-06T09:44:18;2.93;;;2.17;;
5539;SDS011;2792;52.452;9.752;2023-08-06T09:46:49;2.80;;;1.97;;
5539;SDS011;2792;52.452;9.752;2023-08-06T09:49:17;2.23;;;2.03;;
5539;SDS011;2792;52.452;9.752;2023-08-06T09:51:44;4.37;;;2.53;;
5539;SDS011;2792;52.452;9.752;2023-08-06T09:54:11;3.77;;;2.30;;
5539;SDS011;2792;52.452;9.752;2023-08-06T09:56:40;4.10;;;2.33;;
5539;SDS011;2792;52.452;9.752;2023-08-06T09:59:07;3.47;;;2.80;;
5539;SDS011;2792;52.452;9.752;2023-08-06T10:01:33;3.10;;;2.47;;
5539;SDS011;2792;52.452;9.752;2023-08-06T10:04:01;2.77;;;2.57;;
5539;SDS011;2792;52.452;9.752;2023-08-06T10:06:29;2.10;;;2.00;;
5539;SDS011;2792;52.452;9.752;2023-08-06T10:08:56;3.40;;;2.53;;
5539;SDS011;2792;52.452;9.752;2023-08-06T10:11:23;4.43;;;2.10;;
5539;SDS011;2792;52.452;9.752;2023-08-06T10:13:53;3.53;;;2.30;;
5539;SDS011;2792;52.452;9.752;2023-08-06T10:16:23;2.20;;;2.10;;
5539;SDS011;2792;52.452;9.752;2023-08-06T10:18:49;3.27;;;2.30;;
5539;SDS011;2792;52.452;9.752;2023-08-06T10:21:17;2.60;;;2.40;;
5539;SDS011;2792;52.452;9.752;2023-08-06T10:23:43;3.40;;;2.10;;
5539;SDS011;2792;52.452;9.752;2023-08-06T10:26:10;3.10;;;2.20;;
5539;SDS011;2792;52.452;9.752;2023-08-06T10:28:37;3.13;;;2.37;;
5539;SDS011;2792;52.452;9.752;2023-08-06T10:31:05;3.00;;;2.47;;
5539;SDS011;2792;52.452;9.752;2023-08-06T10:33:42;2.20;;;2.00;;
5539;SDS011;2792;52.452;9.752;2023-08-06T10:36:09;2.70;;;2.47;;
5539;SDS011;2792;52.452;9.752;2023-08-06T10:38:43;3.87;;;2.60;;
5539;SDS011;2792;52.452;9.752;2023-08-06T10:41:14;3.70;;;2.53;;
5539;SDS011;2792;52.452;9.752;2023-08-06T10:43:42;2.97;;;2.47;;
5539;SDS011;2792;52.452;9.752;2023-08-06T10:46:12;2.50;;;2.30;;
5539;SDS011;2792;52.452;9.752;2023-08-06T10:48:47;3.23;;;2.63;;
5539;SDS011;2792;52.452;9.752;2023-08-06T10:51:14;3.00;;;2.70;;
5539;SDS011;2792;52.452;9.752;2023-08-06T10:53:41;3.40;;;3.10;;
5539;SDS011;2792;52.452;9.752;2023-08-06T10:56:12;2.90;;;2.33;;
5539;SDS011;2792;52.452;9.752;2023-08-06T10:58:39;2.67;;;2.47;;
5539;SDS011;2792;52.452;9.752;2023-08-06T11:01:05;2.47;;;2.27;;
5539;SDS011;2792;52.452;9.752;2023-08-06T11:03:34;3.63;;;2.63;;
5539;SDS011;2792;52.452;9.752;2023-08-06T11:06:00;4.07;;;2.73;;
5539;SDS011;2792;52.452;9.752;2023-08-06T11:08:28;2.80;;;2.60;;
5539;SDS011;2792;52.452;9.752;2023-08-06T11:10:57;2.90;;;2.67;;
5539;SDS011;2792;52.452;9.752;2023-08-06T11:13:34;2.50;;;2.30;;
5539;SDS011;2792;52.452;9.752;2023-08-06T11:16:00;2.40;;;2.20;;
5539;SDS011;2792;52.452;9.752;2023-08-06T11:18:27;2.40;;;2.20;;
5539;SDS011;2792;52.452;9.752;2023-08-06T11:20:55;3.10;;;2.67;;
5539;SDS011;2792;52.452;9.752;2023-08-06T11:23:25;2.40;;;2.20;;
5539;SDS011;2792;52.452;9.752;2023-08-06T11:25:53;3.03;;;2.20;;
5539;SDS011;2792;52.452;9.752;2023-08-06T11:28:19;3.30;;;2.70;;
5539;SDS011;2792;52.452;9.752;2023-08-06T11:30:47;3.67;;;2.60;;
5539;SDS011;2792;52.452;9.752;2023-08-06T11:33:13;7.43;;;2.90;;
5539;SDS011;2792;52.452;9.752;2023-08-06T11:35:40;6.70;;;2.67;;
5539;SDS011;2792;52.452;9.752;2023-08-06T11:38:08;2.67;;;2.47;;
5539;SDS011;2792;52.452;9.752;2023-08-06T11:40:35;2.30;;;2.10;;
5539;SDS011;2792;52.452;9.752;2023-08-06T11:43:01;2.43;;;2.23;;
5539;SDS011;2792;52.452;9.752;2023-08-06T11:45:28;3.33;;;2.77;;
5539;SDS011;2792;52.452;9.752;2023-08-06T11:47:55;3.03;;;2.50;;
5539;SDS011;2792;52.452;9.752;2023-08-06T11:50:22;2.63;;;2.30;;
5539;SDS011;2792;52.452;9.752;2023-08-06T11:52:49;2.47;;;2.27;;
5539;SDS011;2792;52.452;9.752;2023-08-06T11:55:22;2.53;;;2.33;;
5539;SDS011;2792;52.452;9.752;2023-08-06T11:57:49;3.17;;;2.30;;
5539;SDS011;2792;52.452;9.752;2023-08-06T12:00:17;2.63;;;2.37;;
5539;SDS011;2792;52.452;9.752;2023-08-06T12:02:45;1.90;;;1.80;;
5539;SDS011;2792;52.452;9.752;2023-08-06T12:05:14;2.37;;;2.17;;
5539;SDS011;2792;52.452;9.752;2023-08-06T12:07:43;2.13;;;2.03;;
5539;SDS011;2792;52.452;9.752;2023-08-06T12:10:10;2.50;;;2.23;;
5539;SDS011;2792;52.452;9.752;2023-08-06T12:12:39;2.70;;;2.50;;
5539;SDS011;2792;52.452;9.752;2023-08-06T12:15:06;3.03;;;2.70;;
5539;SDS011;2792;52.452;9.752;2023-08-06T12:17:33;2.83;;;2.63;;
5539;SDS011;2792;52.452;9.752;2023-08-06T12:20:00;4.83;;;2.37;;
5539;SDS011;2792;52.452;9.752;2023-08-06T12:22:27;2.87;;;2.53;;
5539;SDS011;2792;52.452;9.752;2023-08-06T12:24:56;2.63;;;2.43;;
5539;SDS011;2792;52.452;9.752;2023-08-06T12:27:23;4.33;;;3.00;;
5539;SDS011;2792;52.452;9.752;2023-08-06T12:29:51;2.77;;;2.43;;
5539;SDS011;2792;52.452;9.752;2023-08-06T12:32:18;2.77;;;2.47;;
5539;SDS011;2792;52.452;9.752;2023-08-06T12:34:44;3.00;;;2.20;;
5539;SDS011;2792;52.452;9.752;2023-08-06T12:37:11;2.60;;;2.40;;
5539;SDS011;2792;52.452;9.752;2023-08-06T12:39:38;2.90;;;2.67;;
5539;SDS011;2792;52.452;9.752;2023-08-06T12:42:04;2.90;;;2.60;;
5539;SDS011;2792;52.452;9.752;2023-08-06T12:44:31;2.80;;;2.60;;
5539;SDS011;2792;52.452;9.752;2023-08-06T12:47:00;2.43;;;2.20;;
5539;SDS011;2792;52.452;9.752;2023-08-06T12:49:26;2.20;;;2.10;;
5539;SDS011;2792;52.452;9.752;2023-08-06T12:51:53;18.03;;;2.50;;
5539;SDS011;2792;52.452;9.752;2023-08-06T12:54:21;2.50;;;2.30;;
5539;SDS011;2792;52.452;9.752;2023-08-06T12:56:48;5.13;;;2.63;;
5539;SDS011;2792;52.452;9.752;2023-08-06T12:59:15;2.77;;;2.53;;
5539;SDS011;2792;52.452;9.752;2023-08-06T13:01:42;3.40;;;2.33;;
5539;SDS011;2792;52.452;9.752;2023-08-06T13:04:10;2.80;;;2.60;;
5539;SDS011;2792;52.452;9.752;2023-08-06T13:06:37;2.33;;;2.00;;
5539;SDS011;2792;52.452;9.752;2023-08-06T13:09:05;2.33;;;2.20;;
5539;SDS011;2792;52.452;9.752;2023-08-06T13:11:33;3.87;;;2.30;;
5539;SDS011;2792;52.452;9.752;2023-08-06T13:14:03;4.93;;;2.43;;
5539;SDS011;2792;52.452;9.752;2023-08-06T13:16:30;4.73;;;2.47;;
5539;SDS011;2792;52.452;9.752;2023-08-06T13:18:57;4.10;;;2.60;;
5539;SDS011;2792;52.452;9.752;2023-08-06T13:21:30;3.30;;;2.20;;
5539;SDS011;2792;52.452;9.752;2023-08-06T13:23:58;3.17;;;2.50;;
5539;SDS011;2792;52.452;9.752;2023-08-06T13:26:24;3.60;;;2.77;;
5539;SDS011;2792;52.452;9.752;2023-08-06T13:28:51;2.53;;;2.17;;
5539;SDS011;2792;52.452;9.752;2023-08-06T13:31:17;2.50;;;2.30;;
5539;SDS011;2792;52.452;9.752;2023-08-06T13:33:44;3.67;;;2.67;;
5539;SDS011;2792;52.452;9.752;2023-08-06T13:36:10;3.87;;;2.40;;
5539;SDS011;2792;52.452;9.752;2023-08-06T13:38:38;2.60;;;2.07;;
5539;SDS011;2792;52.452;9.752;2023-08-06T13:41:04;3.80;;;2.90;;
5539;SDS011;2792;52.452;9.752;2023-08-06T13:43:31;3.10;;;2.40;;
5539;SDS011;2792;52.452;9.752;2023-08-06T13:45:57;2.50;;;2.30;;
5539;SDS011;2792;52.452;9.752;2023-08-06T13:48:24;2.70;;;2.40;;
5539;SDS011;2792;52.452;9.752;2023-08-06T13:50:50;2.27;;;2.17;;
5539;SDS011;2792;52.452;9.752;2023-08-06T13:53:17;2.30;;;2.10;;
5539;SDS011;2792;52.452;9.752;2023-08-06T13:55:45;3.37;;;2.10;;
5539;SDS011;2792;52.452;9.752;2023-08-06T13:58:11;4.10;;;2.20;;
5539;SDS011;2792;52.452;9.752;2023-08-06T14:00:38;1.87;;;1.77;;
5539;SDS011;2792;52.452;9.752;2023-08-06T14:03:04;2.30;;;2.10;;
5539;SDS011;2792;52.452;9.752;2023-08-06T14:05:31;2.77;;;1.77;;
5539;SDS011;2792;52.452;9.752;2023-08-06T14:07:58;1.90;;;1.77;;
5539;SDS011;2792;52.452;9.752;2023-08-06T14:10:25;2.20;;;2.00;;
5539;SDS011;2792;52.452;9.752;2023-08-06T14:12:53;3.17;;;2.07;;
5539;SDS011;2792;52.452;9.752;2023-08-06T14:15:19;1.87;;;1.77;;
5539;SDS011;2792;52.452;9.752;2023-08-06T14:17:46;2.60;;;1.87;;
5539;SDS011;2792;52.452;9.752;2023-08-06T14:20:12;2.00;;;1.90;;
5539;SDS011;2792;52.452;9.752;2023-08-06T14:22:39;1.90;;;1.80;;
5539;SDS011;2792;52.452;9.752;2023-08-06T14:25:06;2.47;;;2.27;;
5539;SDS011;2792;52.452;9.752;2023-08-06T14:27:33;2.30;;;2.20;;
5539;SDS011;2792;52.452;9.752;2023-08-06T14:30:01;3.10;;;1.60;;
5539;SDS011;2792;52.452;9.752;2023-08-06T14:32:29;3.20;;;2.10;;
5539;SDS011;2792;52.452;9.752;2023-08-06T14:34:55;1.93;;;1.83;;
5539;SDS011;2792;52.452;9.752;2023-08-06T14:37:22;2.20;;;1.90;;
5539;SDS011;2792;52.452;9.752;2023-08-06T14:39:49;1.70;;;1.60;;
5539;SDS011;2792;52.452;9.752;2023-08-06T14:42:15;1.80;;;1.70;;
5539;SDS011;2792;52.452;9.752;2023-08-06T14:44:42;2.33;;;1.80;;
5539;SDS011;2792;52.452;9.752;2023-08-06T14:47:09;2.63;;;2.43;;
5539;SDS011;2792;52.452;9.752;2023-08-06T14:49:37;2.53;;;1.77;;
5539;SDS011;2792;52.452;9.752;2023-08-06T14:52:03;2.03;;;1.80;;
5539;SDS011;2792;52.452;9.752;2023-08-06T14:54:30;3.37;;;1.63;;
5539;SDS011;2792;52.452;9.752;2023-08-06T14:56:57;1.67;;;1.57;;
5539;SDS011;2792;52.452;9.752;2023-08-06T14:59:23;2.10;;;1.90;;
5539;SDS011;2792;52.452;9.752;2023-08-06T15:01:50;4.80;;;1.80;;
5539;SDS011;2792;52.452;9.752;2023-08-06T15:04:18;2.70;;;2.07;;
5539;SDS011;2792;52.452;9.752;2023-08-06T15:06:45;3.70;;;1.90;;